Aeroporto :
LOGIN :

Iscrizione | Disclaimer

   EN    FR    IT 

 










Sommario :    VFR   VFR Marginale   IFR   IFR Intensivo   IFR Molto Intensivo
Visibilità : 
Base nubi : 
>= 8 km
>= 3000ft
5 / 8 km
1000 / 3000 ft
1500m / 5 km
500 / 1000 ft
800 / 1500m
200 / 500 ft
< 800m
< 200 ft
Simboli :   Temporali  Nebbia  Neve Forte  Precipitazioni Forti  Vento > 20 kt
SIGMETs :   Varie  Temporali  Ghiacco  Turbolenza  Onda orograficha  Ceneri Vulcaniche






- Altitudine del aeroporto : 83 ft
- Codice IATA : LHR


EGLL - London Heathrow

ULTIMO METAR :
  • 051750Z AUTO 23013KT 9999 -RA NCD 09/07 Q1015 NOSIG

METARs OBSOLETI :
  • 051720Z AUTO 23015KT 9999 -RA NCD 09/07 Q1016 NOSIG
  • 051650Z AUTO 22013KT 9999 NCD 09/07 Q1016 NOSIG
  • 051620Z AUTO 22011KT 9999 NCD 08/07 Q1016
  • 051550Z AUTO 22010KT 9999 NCD 08/07 Q1017 NOSIG
  • 051520Z AUTO 22009KT 190V270 9999 NCD 08/07 Q1017
  • 051450Z AUTO 23010KT 9999 NCD 08/07 Q1017 NOSIG

TAF COR TAF EGLL
Valido dal 05 a 18 ore il 07 a 00 ore UTC


051721Z 0518/0624 22012KT 9999 SCT020
TEMPO 0518/0614 23015G25KT
BECMG 0519/0522 BKN012
TEMPO 0521/0613 6000 -RADZ
PROB40
TEMPO 0521/0612 3000 RADZ BKN006
BECMG 0612/0615 SCT020
TEMPO 0614/0619 25018G28KT 7000 SHRA BKN012
BECMG 0615/0618 27012KT
PROB30
TEMPO 0615/0618 4000 +SHRA



MetMap, La meteo Aeronautica in un colpo d'occhio ! - Copyright ORBIFLY Dicembre 2007 - Disclaimer

ORBIFLY MET'MAP TEAM :

Programmazione e sviluppo : Alexandra Zaïnal
Concezione : Baudouin d'Aumeries
Aiuto per la programmazione : Marc-Olivier Méhu
Supporto tecnico e logistico : Manuel Goepfert
Aiuto per la traduzione : Arnaldo La Scala

Contatto : metmap@orbifly.com




FONTI E CREDITI :

   NOAA